sensor_id;sensor_type;location;lat;lon;timestamp;pressure;altitude;pressure_sealevel;temperature;humidity
71774;BME280;59607;52.130;5.430;2024-01-27T00:01:38;103525.19;;;3.08;100.00
71774;BME280;59607;52.130;5.430;2024-01-27T00:04:07;103531.31;;;3.06;100.00
71774;BME280;59607;52.130;5.430;2024-01-27T00:06:36;103527.91;;;3.04;100.00
71774;BME280;59607;52.130;5.430;2024-01-27T00:09:03;103527.16;;;3.00;100.00
71774;BME280;59607;52.130;5.430;2024-01-27T00:11:34;103534.94;;;3.00;100.00
71774;BME280;59607;52.130;5.430;2024-01-27T00:14:05;103525.50;;;2.98;100.00
71774;BME280;59607;52.130;5.430;2024-01-27T00:16:31;103525.56;;;2.96;100.00
71774;BME280;59607;52.130;5.430;2024-01-27T00:19:03;103540.25;;;2.95;100.00
71774;BME280;59607;52.130;5.430;2024-01-27T00:21:30;103537.66;;;2.95;100.00
71774;BME280;59607;52.130;5.430;2024-01-27T00:23:57;103527.28;;;2.95;100.00
71774;BME280;59607;52.130;5.430;2024-01-27T00:26:27;103533.34;;;2.96;100.00
71774;BME280;59607;52.130;5.430;2024-01-27T00:28:55;103534.34;;;2.92;100.00
71774;BME280;59607;52.130;5.430;2024-01-27T00:31:24;103533.53;;;2.90;100.00
71774;BME280;59607;52.130;5.430;2024-01-27T00:33:53;103534.38;;;2.90;100.00
71774;BME280;59607;52.130;5.430;2024-01-27T00:36:20;103534.34;;;2.92;100.00
71774;BME280;59607;52.130;5.430;2024-01-27T00:38:50;103530.88;;;2.91;100.00
71774;BME280;59607;52.130;5.430;2024-01-27T00:41:17;103530.94;;;2.90;100.00
71774;BME280;59607;52.130;5.430;2024-01-27T00:43:44;103533.63;;;2.87;100.00
71774;BME280;59607;52.130;5.430;2024-01-27T00:46:14;103528.53;;;2.83;100.00
71774;BME280;59607;52.130;5.430;2024-01-27T00:48:45;103528.56;;;2.82;100.00
71774;BME280;59607;52.130;5.430;2024-01-27T00:51:12;103526.94;;;2.78;100.00
71774;BME280;59607;52.130;5.430;2024-01-27T00:53:45;103521.75;;;2.78;100.00
71774;BME280;59607;52.130;5.430;2024-01-27T00:56:12;103520.13;;;2.75;100.00
71774;BME280;59607;52.130;5.430;2024-01-27T00:58:42;103523.56;;;2.76;100.00
71774;BME280;59607;52.130;5.430;2024-01-27T01:01:11;103535.63;;;2.77;100.00
71774;BME280;59607;52.130;5.430;2024-01-27T01:03:38;103532.25;;;2.73;100.00
71774;BME280;59607;52.130;5.430;2024-01-27T01:06:10;103534.88;;;2.71;100.00
71774;BME280;59607;52.130;5.430;2024-01-27T01:08:37;103539.31;;;2.68;100.00
71774;BME280;59607;52.130;5.430;2024-01-27T01:11:05;103538.53;;;2.66;100.00
71774;BME280;59607;52.130;5.430;2024-01-27T01:13:31;103537.66;;;2.65;100.00
71774;BME280;59607;52.130;5.430;2024-01-27T01:16:00;103545.47;;;2.64;100.00
71774;BME280;59607;52.130;5.430;2024-01-27T01:18:29;103546.28;;;2.66;100.00
71774;BME280;59607;52.130;5.430;2024-01-27T01:21:00;103542.13;;;2.60;100.00
71774;BME280;59607;52.130;5.430;2024-01-27T01:23:26;103555.06;;;2.60;100.00
71774;BME280;59607;52.130;5.430;2024-01-27T01:25:55;103548.25;;;2.57;100.00
71774;BME280;59607;52.130;5.430;2024-01-27T01:28:25;103547.34;;;2.58;100.00
71774;BME280;59607;52.130;5.430;2024-01-27T01:30:52;103549.94;;;2.58;100.00
71774;BME280;59607;52.130;5.430;2024-01-27T01:33:22;103541.38;;;2.55;100.00
71774;BME280;59607;52.130;5.430;2024-01-27T01:35:56;103537.16;;;2.52;100.00
71774;BME280;59607;52.130;5.430;2024-01-27T01:38:24;103529.50;;;2.47;100.00
71774;BME280;59607;52.130;5.430;2024-01-27T01:40:51;103538.19;;;2.45;100.00
71774;BME280;59607;52.130;5.430;2024-01-27T01:43:17;103538.19;;;2.45;100.00
71774;BME280;59607;52.130;5.430;2024-01-27T01:45:44;103533.00;;;2.45;100.00
71774;BME280;59607;52.130;5.430;2024-01-27T01:48:24;103538.19;;;2.46;100.00
71774;BME280;59607;52.130;5.430;2024-01-27T01:50:57;103543.38;;;2.46;100.00
71774;BME280;59607;52.130;5.430;2024-01-27T01:53:25;103539.97;;;2.44;100.00
71774;BME280;59607;52.130;5.430;2024-01-27T01:55:52;103551.13;;;2.46;100.00
71774;BME280;59607;52.130;5.430;2024-01-27T01:58:21;103554.56;;;2.47;100.00
71774;BME280;59607;52.130;5.430;2024-01-27T02:00:47;103552.81;;;2.47;100.00
71774;BME280;59607;52.130;5.430;2024-01-27T02:03:14;103555.41;;;2.47;100.00
71774;BME280;59607;52.130;5.430;2024-01-27T02:05:46;103557.22;;;2.44;100.00
71774;BME280;59607;52.130;5.430;2024-01-27T02:08:13;103553.78;;;2.43;100.00
71774;BME280;59607;52.130;5.430;2024-01-27T02:10:40;103552.22;;;2.38;100.00
71774;BME280;59607;52.130;5.430;2024-01-27T02:13:22;103547.97;;;2.35;100.00
71774;BME280;59607;52.130;5.430;2024-01-27T02:15:56;103545.38;;;2.35;100.00
71774;BME280;59607;52.130;5.430;2024-01-27T02:18:22;103546.22;;;2.36;100.00
71774;BME280;59607;52.130;5.430;2024-01-27T02:21:09;103554.81;;;2.38;100.00
71774;BME280;59607;52.130;5.430;2024-01-27T02:23:36;103555.84;;;2.32;100.00
71774;BME280;59607;52.130;5.430;2024-01-27T02:26:02;103542.06;;;2.30;100.00
71774;BME280;59607;52.130;5.430;2024-01-27T02:28:29;103538.66;;;2.28;100.00
71774;BME280;59607;52.130;5.430;2024-01-27T02:31:06;103545.59;;;2.26;100.00
71774;BME280;59607;52.130;5.430;2024-01-27T02:33:35;103549.88;;;2.28;100.00
71774;BME280;59607;52.130;5.430;2024-01-27T02:36:05;103542.94;;;2.29;100.00
71774;BME280;59607;52.130;5.430;2024-01-27T02:38:34;103546.44;;;2.28;100.00
71774;BME280;59607;52.130;5.430;2024-01-27T02:41:09;103543.78;;;2.29;100.00
71774;BME280;59607;52.130;5.430;2024-01-27T02:43:36;103542.88;;;2.30;100.00
71774;BME280;59607;52.130;5.430;2024-01-27T02:46:12;103541.19;;;2.29;100.00
71774;BME280;59607;52.130;5.430;2024-01-27T02:48:46;103550.59;;;2.33;100.00
71774;BME280;59607;52.130;5.430;2024-01-27T02:51:20;103557.41;;;2.38;100.00
71774;BME280;59607;52.130;5.430;2024-01-27T02:53:50;103553.06;;;2.38;100.00
71774;BME280;59607;52.130;5.430;2024-01-27T02:56:19;103561.66;;;2.39;100.00
71774;BME280;59607;52.130;5.430;2024-01-27T02:58:48;103561.78;;;2.34;100.00
71774;BME280;59607;52.130;5.430;2024-01-27T03:01:17;103550.59;;;2.33;100.00
71774;BME280;59607;52.130;5.430;2024-01-27T03:03:43;103554.94;;;2.33;100.00
71774;BME280;59607;52.130;5.430;2024-01-27T03:06:13;103559.25;;;2.32;100.00
71774;BME280;59607;52.130;5.430;2024-01-27T03:08:46;103557.53;;;2.33;100.00
71774;BME280;59607;52.130;5.430;2024-01-27T03:11:13;103556.56;;;2.36;100.00
71774;BME280;59607;52.130;5.430;2024-01-27T03:13:47;103558.25;;;2.38;100.00
71774;BME280;59607;52.130;5.430;2024-01-27T03:16:23;103551.31;;;2.39;100.00
71774;BME280;59607;52.130;5.430;2024-01-27T03:18:51;103555.66;;;2.38;100.00
71774;BME280;59607;52.130;5.430;2024-01-27T03:21:24;103557.34;;;2.39;100.00
71774;BME280;59607;52.130;5.430;2024-01-27T03:23:51;103555.63;;;2.40;100.00
71774;BME280;59607;52.130;5.430;2024-01-27T03:26:17;103553.00;;;2.41;100.00
71774;BME280;59607;52.130;5.430;2024-01-27T03:28:44;103549.47;;;2.44;100.00
71774;BME280;59607;52.130;5.430;2024-01-27T03:31:17;103548.56;;;2.45;100.00
71774;BME280;59607;52.130;5.430;2024-01-27T03:33:43;103545.13;;;2.44;100.00
71774;BME280;59607;52.130;5.430;2024-01-27T03:36:12;103541.72;;;2.42;100.00
71774;BME280;59607;52.130;5.430;2024-01-27T03:38:43;103544.28;;;2.44;100.00
71774;BME280;59607;52.130;5.430;2024-01-27T03:41:09;103542.59;;;2.43;100.00
71774;BME280;59607;52.130;5.430;2024-01-27T03:43:43;103551.19;;;2.43;100.00
71774;BME280;59607;52.130;5.430;2024-01-27T03:46:09;103561.59;;;2.42;100.00
71774;BME280;59607;52.130;5.430;2024-01-27T03:48:35;103556.50;;;2.39;100.00
71774;BME280;59607;52.130;5.430;2024-01-27T03:51:08;103553.06;;;2.38;100.00
71774;BME280;59607;52.130;5.430;2024-01-27T03:53:34;103552.25;;;2.36;100.00
71774;BME280;59607;52.130;5.430;2024-01-27T03:56:05;103560.00;;;2.38;100.00
71774;BME280;59607;52.130;5.430;2024-01-27T03:58:34;103567.78;;;2.36;100.00
71774;BME280;59607;52.130;5.430;2024-01-27T04:01:07;103566.97;;;2.34;100.00
71774;BME280;59607;52.130;5.430;2024-01-27T04:03:33;103566.94;;;2.36;100.00
71774;BME280;59607;52.130;5.430;2024-01-27T04:06:00;103572.97;;;2.36;100.00
71774;BME280;59607;52.130;5.430;2024-01-27T04:08:30;103563.53;;;2.35;100.00
71774;BME280;59607;52.130;5.430;2024-01-27T04:10:59;103562.66;;;2.34;100.00
71774;BME280;59607;52.130;5.430;2024-01-27T04:13:26;103575.56;;;2.36;100.00
71774;BME280;59607;52.130;5.430;2024-01-27T04:16:01;103568.69;;;2.35;100.00
71774;BME280;59607;52.130;5.430;2024-01-27T04:18:29;103575.59;;;2.34;100.00
71774;BME280;59607;52.130;5.430;2024-01-27T04:20:57;103574.78;;;2.32;100.00
71774;BME280;59607;52.130;5.430;2024-01-27T04:23:26;103576.50;;;2.33;100.00
71774;BME280;59607;52.130;5.430;2024-01-27T04:25:53;103569.59;;;2.32;100.00
71774;BME280;59607;52.130;5.430;2024-01-27T04:28:25;103563.63;;;2.30;100.00
71774;BME280;59607;52.130;5.430;2024-01-27T04:30:54;103570.56;;;2.30;100.00
71774;BME280;59607;52.130;5.430;2024-01-27T04:33:22;103575.72;;;2.30;100.00
71774;BME280;59607;52.130;5.430;2024-01-27T04:36:07;103580.06;;;2.29;100.00
71774;BME280;59607;52.130;5.430;2024-01-27T04:38:35;103587.00;;;2.27;100.00
71774;BME280;59607;52.130;5.430;2024-01-27T04:41:01;103589.66;;;2.24;100.00
71774;BME280;59607;52.130;5.430;2024-01-27T04:43:29;103584.50;;;2.24;100.00
71774;BME280;59607;52.130;5.430;2024-01-27T04:46:01;103573.31;;;2.24;100.00
71774;BME280;59607;52.130;5.430;2024-01-27T04:48:27;103576.69;;;2.26;100.00
71774;BME280;59607;52.130;5.430;2024-01-27T04:50:57;103577.63;;;2.23;100.00
71774;BME280;59607;52.130;5.430;2024-01-27T04:53:27;103574.19;;;2.22;100.00
71774;BME280;59607;52.130;5.430;2024-01-27T04:55:56;103581.13;;;2.22;100.00
71774;BME280;59607;52.130;5.430;2024-01-27T04:58:25;103589.75;;;2.21;100.00
71774;BME280;59607;52.130;5.430;2024-01-27T05:00:52;103580.34;;;2.18;100.00
71774;BME280;59607;52.130;5.430;2024-01-27T05:03:19;103580.38;;;2.17;100.00
71774;BME280;59607;52.130;5.430;2024-01-27T05:05:52;103582.09;;;2.16;100.00
71774;BME280;59607;52.130;5.430;2024-01-27T05:08:19;103582.91;;;2.18;100.00
71774;BME280;59607;52.130;5.430;2024-01-27T05:10:48;103580.28;;;2.20;100.00
71774;BME280;59607;52.130;5.430;2024-01-27T05:13:27;103576.81;;;2.21;100.00
71774;BME280;59607;52.130;5.430;2024-01-27T05:15:59;103583.75;;;2.20;100.00
71774;BME280;59607;52.130;5.430;2024-01-27T05:18:27;103575.06;;;2.21;100.00
71774;BME280;59607;52.130;5.430;2024-01-27T05:20:54;103570.84;;;2.19;100.00
71774;BME280;59607;52.130;5.430;2024-01-27T05:23:25;103561.34;;;2.18;100.00
71774;BME280;59607;52.130;5.430;2024-01-27T05:25:54;103553.63;;;2.16;100.00
71774;BME280;59607;52.130;5.430;2024-01-27T05:28:23;103554.47;;;2.17;100.00
71774;BME280;59607;52.130;5.430;2024-01-27T05:30:50;103564.88;;;2.15;100.00
71774;BME280;59607;52.130;5.430;2024-01-27T05:33:16;103551.97;;;2.14;100.00
71774;BME280;59607;52.130;5.430;2024-01-27T05:36:00;103558.88;;;2.13;100.00
71774;BME280;59607;52.130;5.430;2024-01-27T05:38:29;103553.69;;;2.13;100.00
71774;BME280;59607;52.130;5.430;2024-01-27T05:41:18;103560.59;;;2.13;100.00
71774;BME280;59607;52.130;5.430;2024-01-27T05:43:47;103561.47;;;2.13;100.00
71774;BME280;59607;52.130;5.430;2024-01-27T05:46:13;103558.88;;;2.13;100.00
71774;BME280;59607;52.130;5.430;2024-01-27T05:48:39;103550.25;;;2.13;100.00
71774;BME280;59607;52.130;5.430;2024-01-27T05:51:09;103551.09;;;2.13;100.00
71774;BME280;59607;52.130;5.430;2024-01-27T05:53:46;103563.25;;;2.11;100.00
71774;BME280;59607;52.130;5.430;2024-01-27T05:56:26;103558.91;;;2.12;100.00
71774;BME280;59607;52.130;5.430;2024-01-27T05:58:55;103564.13;;;2.10;100.00
71774;BME280;59607;52.130;5.430;2024-01-27T06:01:22;103558.97;;;2.10;100.00
71774;BME280;59607;52.130;5.430;2024-01-27T06:03:48;103559.78;;;2.12;100.00
71774;BME280;59607;52.130;5.430;2024-01-27T06:06:15;103554.59;;;2.12;100.00
71774;BME280;59607;52.130;5.430;2024-01-27T06:09:02;103555.38;;;2.14;100.00
71774;BME280;59607;52.130;5.430;2024-01-27T06:11:33;103553.66;;;2.15;100.00
71774;BME280;59607;52.130;5.430;2024-01-27T06:14:11;103556.25;;;2.15;100.00
71774;BME280;59607;52.130;5.430;2024-01-27T06:16:37;103558.75;;;2.18;100.00
71774;BME280;59607;52.130;5.430;2024-01-27T06:19:13;103563.09;;;2.17;100.00
71774;BME280;59607;52.130;5.430;2024-01-27T06:21:39;103563.06;;;2.19;100.00
71774;BME280;59607;52.130;5.430;2024-01-27T06:24:06;103573.44;;;2.19;100.00
71774;BME280;59607;52.130;5.430;2024-01-27T06:26:33;103564.75;;;2.20;100.00
71774;BME280;59607;52.130;5.430;2024-01-27T06:29:02;103558.72;;;2.19;100.00
71774;BME280;59607;52.130;5.430;2024-01-27T06:31:30;103563.84;;;2.21;100.00
71774;BME280;59607;52.130;5.430;2024-01-27T06:34:16;103556.94;;;2.21;100.00
71774;BME280;59607;52.130;5.430;2024-01-27T06:36:43;103564.75;;;2.20;100.00
71774;BME280;59607;52.130;5.430;2024-01-27T06:39:10;103564.75;;;2.20;100.00
71774;BME280;59607;52.130;5.430;2024-01-27T06:41:46;103568.22;;;2.20;100.00
71774;BME280;59607;52.130;5.430;2024-01-27T06:44:12;103563.06;;;2.19;100.00
71774;BME280;59607;52.130;5.430;2024-01-27T06:46:39;103564.78;;;2.18;100.00
71774;BME280;59607;52.130;5.430;2024-01-27T06:49:14;103560.47;;;2.19;100.00
71774;BME280;59607;52.130;5.430;2024-01-27T06:51:40;103565.69;;;2.17;100.00
71774;BME280;59607;52.130;5.430;2024-01-27T06:54:09;103574.34;;;2.16;100.00
71774;BME280;59607;52.130;5.430;2024-01-27T06:56:39;103570.94;;;2.14;100.00
71774;BME280;59607;52.130;5.430;2024-01-27T06:59:06;103570.09;;;2.14;100.00
71774;BME280;59607;52.130;5.430;2024-01-27T07:01:32;103577.00;;;2.13;100.00
71774;BME280;59607;52.130;5.430;2024-01-27T07:04:03;103570.97;;;2.13;100.00
71774;BME280;59607;52.130;5.430;2024-01-27T07:06:30;103582.25;;;2.10;100.00
71774;BME280;59607;52.130;5.430;2024-01-27T07:09:17;103576.25;;;2.08;100.00
71774;BME280;59607;52.130;5.430;2024-01-27T07:11:53;103589.28;;;2.05;100.00
71774;BME280;59607;52.130;5.430;2024-01-27T07:14:19;103586.72;;;2.03;100.00
71774;BME280;59607;52.130;5.430;2024-01-27T07:16:46;103591.03;;;2.04;100.00
71774;BME280;59607;52.130;5.430;2024-01-27T07:19:12;103588.50;;;2.01;100.00
71774;BME280;59607;52.130;5.430;2024-01-27T07:21:43;103598.84;;;2.01;100.00
71774;BME280;59607;52.130;5.430;2024-01-27T07:24:13;103601.38;;;2.06;100.00
71774;BME280;59607;52.130;5.430;2024-01-27T07:26:39;103606.50;;;2.07;100.00
71774;BME280;59607;52.130;5.430;2024-01-27T07:29:20;103606.47;;;2.09;100.00
71774;BME280;59607;52.130;5.430;2024-01-27T07:31:50;103608.22;;;2.07;100.00
71774;BME280;59607;52.130;5.430;2024-01-27T07:34:24;103609.91;;;2.08;100.00
71774;BME280;59607;52.130;5.430;2024-01-27T07:37:14;103615.81;;;2.15;100.00
71774;BME280;59607;52.130;5.430;2024-01-27T07:39:43;103606.31;;;2.15;100.00
71774;BME280;59607;52.130;5.430;2024-01-27T07:42:09;103607.09;;;2.19;100.00
71774;BME280;59607;52.130;5.430;2024-01-27T07:45:05;103619.97;;;2.22;100.00
71774;BME280;59607;52.130;5.430;2024-01-27T07:47:34;103625.06;;;2.25;100.00
71774;BME280;59607;52.130;5.430;2024-01-27T07:50:01;103616.31;;;2.29;100.00
71774;BME280;59607;52.130;5.430;2024-01-27T07:52:35;103612.81;;;2.32;100.00
71774;BME280;59607;52.130;5.430;2024-01-27T07:55:08;103615.19;;;2.40;100.00
71774;BME280;59607;52.130;5.430;2024-01-27T07:57:35;103625.53;;;2.41;100.00
71774;BME280;59607;52.130;5.430;2024-01-27T08:00:03;103631.44;;;2.45;100.00
71774;BME280;59607;52.130;5.430;2024-01-27T08:02:32;103621.09;;;2.46;100.00
71774;BME280;59607;52.130;5.430;2024-01-27T08:04:59;103616.56;;;2.53;100.00
71774;BME280;59607;52.130;5.430;2024-01-27T08:07:28;103623.34;;;2.59;100.00
71774;BME280;59607;52.130;5.430;2024-01-27T08:09:58;103629.13;;;2.69;100.00
71774;BME280;59607;52.130;5.430;2024-01-27T08:12:24;103629.00;;;2.74;100.00
71774;BME280;59607;52.130;5.430;2024-01-27T08:14:54;103620.13;;;2.82;100.00
71774;BME280;59607;52.130;5.430;2024-01-27T08:17:21;103624.16;;;2.93;100.00
71774;BME280;59607;52.130;5.430;2024-01-27T08:19:48;103626.53;;;3.01;100.00
71774;BME280;59607;52.130;5.430;2024-01-27T08:22:18;103630.59;;;3.11;100.00
71774;BME280;59607;52.130;5.430;2024-01-27T08:24:47;103632.81;;;3.24;100.00
71774;BME280;59607;52.130;5.430;2024-01-27T08:27:14;103628.13;;;3.37;100.00
71774;BME280;59607;52.130;5.430;2024-01-27T08:29:44;103634.72;;;3.49;100.00
71774;BME280;59607;52.130;5.430;2024-01-27T08:32:14;103634.34;;;3.61;100.00
71774;BME280;59607;52.130;5.430;2024-01-27T08:34:41;103633.28;;;3.67;100.00
71774;BME280;59607;52.130;5.430;2024-01-27T08:37:17;103634.03;;;3.70;100.00
71774;BME280;59607;52.130;5.430;2024-01-27T08:39:45;103636.41;;;3.78;100.00
71774;BME280;59607;52.130;5.430;2024-01-27T08:42:17;103628.31;;;3.88;100.00
71774;BME280;59607;52.130;5.430;2024-01-27T08:44:43;103618.59;;;3.94;100.00
71774;BME280;59607;52.130;5.430;2024-01-27T08:47:13;103621.63;;;4.07;100.00
71774;BME280;59607;52.130;5.430;2024-01-27T08:49:45;103629.13;;;4.17;100.00
71774;BME280;59607;52.130;5.430;2024-01-27T08:52:18;103631.34;;;4.29;100.00
71774;BME280;59607;52.130;5.430;2024-01-27T08:54:46;103629.38;;;4.36;100.00
71774;BME280;59607;52.130;5.430;2024-01-27T08:57:13;103626.31;;;4.50;100.00
71774;BME280;59607;52.130;5.430;2024-01-27T08:59:53;103625.06;;;4.61;100.00
71774;BME280;59607;52.130;5.430;2024-01-27T09:02:20;103633.56;;;4.66;100.00
71774;BME280;59607;52.130;5.430;2024-01-27T09:04:54;103636.09;;;4.67;100.00
71774;BME280;59607;52.130;5.430;2024-01-27T09:07:30;103634.34;;;4.68;100.00
71774;BME280;59607;52.130;5.430;2024-01-27T09:09:57;103638.66;;;4.69;100.00
71774;BME280;59607;52.130;5.430;2024-01-27T09:12:26;103632.84;;;4.62;100.00
71774;BME280;59607;52.130;5.430;2024-01-27T09:14:54;103631.34;;;4.55;100.00
71774;BME280;59607;52.130;5.430;2024-01-27T09:17:21;103634.84;;;4.54;100.00
71774;BME280;59607;52.130;5.430;2024-01-27T09:19:48;103638.97;;;4.60;100.00
71774;BME280;59607;52.130;5.430;2024-01-27T09:22:15;103641.47;;;4.63;100.00
71774;BME280;59607;52.130;5.430;2024-01-27T09:24:44;103646.25;;;4.50;100.00
71774;BME280;59607;52.130;5.430;2024-01-27T09:27:10;103644.72;;;4.44;100.00
71774;BME280;59607;52.130;5.430;2024-01-27T09:29:40;103642.94;;;4.44;100.00
71774;BME280;59607;52.130;5.430;2024-01-27T09:32:10;103644.44;;;4.52;100.00
71774;BME280;59607;52.130;5.430;2024-01-27T09:34:36;103648.47;;;4.61;100.00
71774;BME280;59607;52.130;5.430;2024-01-27T09:37:12;103655.22;;;4.66;100.00
71774;BME280;59607;52.130;5.430;2024-01-27T09:39:39;103667.03;;;4.75;100.00
71774;BME280;59607;52.130;5.430;2024-01-27T09:42:13;103660.78;;;4.81;100.00
71774;BME280;59607;52.130;5.430;2024-01-27T09:44:56;103662.31;;;4.87;100.00
71774;BME280;59607;52.130;5.430;2024-01-27T09:47:29;103672.59;;;4.90;100.00
71774;BME280;59607;52.130;5.430;2024-01-27T09:49:59;103675.72;;;5.00;100.00
71774;BME280;59607;52.130;5.430;2024-01-27T09:52:26;103673.81;;;5.05;100.00
71774;BME280;59607;52.130;5.430;2024-01-27T09:54:53;103685.94;;;5.06;100.00
71774;BME280;59607;52.130;5.430;2024-01-27T09:57:20;103686.53;;;5.13;100.00
71774;BME280;59607;52.130;5.430;2024-01-27T09:59:49;103693.22;;;5.20;100.00
71774;BME280;59607;52.130;5.430;2024-01-27T10:02:17;103691.19;;;5.28;100.00
71774;BME280;59607;52.130;5.430;2024-01-27T10:04:48;103694.56;;;5.30;100.00
71774;BME280;59607;52.130;5.430;2024-01-27T10:07:18;103699.69;;;5.34;100.00
71774;BME280;59607;52.130;5.430;2024-01-27T10:09:53;103697.63;;;5.42;100.00
71774;BME280;59607;52.130;5.430;2024-01-27T10:12:42;103696.63;;;5.46;100.00
71774;BME280;59607;52.130;5.430;2024-01-27T10:15:20;103692.63;;;5.60;100.00
71774;BME280;59607;52.130;5.430;2024-01-27T10:18:06;103686.97;;;5.72;100.00
71774;BME280;59607;52.130;5.430;2024-01-27T10:20:36;103699.13;;;5.72;100.00
71774;BME280;59607;52.130;5.430;2024-01-27T10:23:15;103694.59;;;5.77;100.00
71774;BME280;59607;52.130;5.430;2024-01-27T10:25:42;103697.78;;;5.85;100.00
71774;BME280;59607;52.130;5.430;2024-01-27T10:28:09;103695.03;;;5.88;100.00
71774;BME280;59607;52.130;5.430;2024-01-27T10:30:38;103694.72;;;5.96;100.00
71774;BME280;59607;52.130;5.430;2024-01-27T10:33:08;103706.59;;;6.03;100.00
71774;BME280;59607;52.130;5.430;2024-01-27T10:35:43;103710.69;;;6.11;100.00
71774;BME280;59607;52.130;5.430;2024-01-27T10:38:09;103716.59;;;6.16;100.00
71774;BME280;59607;52.130;5.430;2024-01-27T10:40:36;103708.44;;;6.24;100.00
71774;BME280;59607;52.130;5.430;2024-01-27T10:43:08;103711.59;;;6.32;100.00
71774;BME280;59607;52.130;5.430;2024-01-27T10:45:37;103710.59;;;6.35;100.00
71774;BME280;59607;52.130;5.430;2024-01-27T10:48:10;103714.69;;;6.42;100.00
71774;BME280;59607;52.130;5.430;2024-01-27T10:50:41;103696.97;;;6.50;100.00
71774;BME280;59607;52.130;5.430;2024-01-27T10:53:22;103695.91;;;6.54;100.00
71774;BME280;59607;52.130;5.430;2024-01-27T10:56:04;103689.41;;;6.65;100.00
71774;BME280;59607;52.130;5.430;2024-01-27T10:58:40;103674.38;;;6.70;100.00
71774;BME280;59607;52.130;5.430;2024-01-27T11:01:10;103671.75;;;6.70;100.00
71774;BME280;59607;52.130;5.430;2024-01-27T11:03:39;103672.47;;;6.74;100.00
71774;BME280;59607;52.130;5.430;2024-01-27T11:06:11;103670.88;;;6.71;100.00
71774;BME280;59607;52.130;5.430;2024-01-27T11:08:42;103682.72;;;6.78;100.00
71774;BME280;59607;52.130;5.430;2024-01-27T11:11:14;103678.16;;;6.84;100.00
71774;BME280;59607;52.130;5.430;2024-01-27T11:13:44;103671.13;;;6.86;100.00
71774;BME280;59607;52.130;5.430;2024-01-27T11:16:26;103668.16;;;6.94;100.00
71774;BME280;59607;52.130;5.430;2024-01-27T11:18:55;103673.19;;;6.98;100.00
71774;BME280;59607;52.130;5.430;2024-01-27T11:21:37;103670.44;;;7.01;100.00
71774;BME280;59607;52.130;5.430;2024-01-27T11:24:23;103676.22;;;7.08;100.00
71774;BME280;59607;52.130;5.430;2024-01-27T11:27:06;103674.88;;;7.19;100.00
71774;BME280;59607;52.130;5.430;2024-01-27T11:29:35;103672.34;;;7.17;100.00
71774;BME280;59607;52.130;5.430;2024-01-27T11:32:06;103670.59;;;7.18;100.00
71774;BME280;59607;52.130;5.430;2024-01-27T11:34:45;103666.50;;;7.12;100.00
71774;BME280;59607;52.130;5.430;2024-01-27T11:37:20;103663.03;;;7.11;100.00
71774;BME280;59607;52.130;5.430;2024-01-27T11:40:06;103664.50;;;7.17;100.00
71774;BME280;59607;52.130;5.430;2024-01-27T11:42:57;103661.00;;;7.18;100.00
71774;BME280;59607;52.130;5.430;2024-01-27T11:45:43;103655.63;;;7.21;100.00
71774;BME280;59607;52.130;5.430;2024-01-27T11:48:09;103649.78;;;7.35;100.00
71774;BME280;59607;52.130;5.430;2024-01-27T11:50:37;103656.75;;;7.35;100.00
71774;BME280;59607;52.130;5.430;2024-01-27T11:53:06;103653.16;;;7.37;100.00
71774;BME280;59607;52.130;5.430;2024-01-27T11:55:37;103644.25;;;7.41;100.00
71774;BME280;59607;52.130;5.430;2024-01-27T11:58:05;103641.25;;;7.51;100.00
71774;BME280;59607;52.130;5.430;2024-01-27T12:00:32;103641.28;;;7.49;100.00
71774;BME280;59607;52.130;5.430;2024-01-27T12:02:59;103642.22;;;7.48;100.00
71774;BME280;59607;52.130;5.430;2024-01-27T12:05:27;103644.69;;;7.51;100.00
71774;BME280;59607;52.130;5.430;2024-01-27T12:07:55;103646.31;;;7.54;100.00
71774;BME280;59607;52.130;5.430;2024-01-27T12:10:21;103642.69;;;7.57;100.00
71774;BME280;59607;52.130;5.430;2024-01-27T12:12:52;103650.69;;;7.53;100.00
71774;BME280;59607;52.130;5.430;2024-01-27T12:15:27;103646.25;;;7.56;100.00
71774;BME280;59607;52.130;5.430;2024-01-27T12:17:56;103633.78;;;7.61;100.00
71774;BME280;59607;52.130;5.430;2024-01-27T12:20:27;103632.66;;;7.67;100.00
71774;BME280;59607;52.130;5.430;2024-01-27T12:23:06;103635.75;;;7.75;100.00
71774;BME280;59607;52.130;5.430;2024-01-27T12:25:36;103632.38;;;7.73;100.00
71774;BME280;59607;52.130;5.430;2024-01-27T12:28:08;103633.16;;;7.75;100.00
71774;BME280;59607;52.130;5.430;2024-01-27T12:30:35;103626.91;;;7.77;100.00
71774;BME280;59607;52.130;5.430;2024-01-27T12:33:12;103626.13;;;7.75;100.00
71774;BME280;59607;52.130;5.430;2024-01-27T12:35:40;103624.53;;;7.73;100.00
71774;BME280;59607;52.130;5.430;2024-01-27T12:38:13;103631.09;;;7.82;100.00
71774;BME280;59607;52.130;5.430;2024-01-27T12:40:39;103629.94;;;7.87;100.00
71774;BME280;59607;52.130;5.430;2024-01-27T12:43:06;103628.41;;;7.83;100.00
71774;BME280;59607;52.130;5.430;2024-01-27T12:45:41;103638.16;;;7.80;100.00
71774;BME280;59607;52.130;5.430;2024-01-27T12:48:07;103646.13;;;7.76;100.00
71774;BME280;59607;52.130;5.430;2024-01-27T12:50:36;103639.13;;;7.77;100.00
71774;BME280;59607;52.130;5.430;2024-01-27T12:53:13;103636.59;;;7.75;100.00
71774;BME280;59607;52.130;5.430;2024-01-27T12:55:43;103642.03;;;7.71;100.00
71774;BME280;59607;52.130;5.430;2024-01-27T12:58:10;103636.59;;;7.75;100.00
71774;BME280;59607;52.130;5.430;2024-01-27T13:00:36;103628.59;;;7.78;100.00
71774;BME280;59607;52.130;5.430;2024-01-27T13:03:08;103626.59;;;7.84;100.00
71774;BME280;59607;52.130;5.430;2024-01-27T13:05:35;103637.22;;;7.81;100.00
71774;BME280;59607;52.130;5.430;2024-01-27T13:08:06;103619.16;;;7.76;100.00